createdAt,value
2023-03-07T00:00:17.233Z,32.30
2023-03-07T00:03:04.489Z,31.98
2023-03-07T00:05:32.552Z,31.55
2023-03-07T00:07:59.661Z,34.65
2023-03-07T00:10:27.219Z,41.28
2023-03-07T00:12:54.199Z,33.80
2023-03-07T00:15:21.455Z,38.00
2023-03-07T00:17:48.804Z,33.00
2023-03-07T00:20:16.271Z,37.22
2023-03-07T00:22:46.672Z,36.17
2023-03-07T00:25:15.097Z,36.25
2023-03-07T00:27:42.448Z,35.60
2023-03-07T00:30:12.465Z,35.88
2023-03-07T00:32:39.662Z,34.95
2023-03-07T00:35:07.444Z,36.20
2023-03-07T00:37:34.492Z,37.20
2023-03-07T00:40:02.388Z,34.15
2023-03-07T00:42:29.386Z,35.90
2023-03-07T00:44:56.756Z,38.35
2023-03-07T00:47:23.700Z,39.78
2023-03-07T00:49:50.920Z,38.40
2023-03-07T00:52:18.997Z,33.63
2023-03-07T00:54:46.495Z,35.72
2023-03-07T00:57:13.387Z,37.85
2023-03-07T00:59:40.785Z,32.53
2023-03-07T01:02:07.835Z,31.95
2023-03-07T01:04:35.276Z,36.25
2023-03-07T01:07:02.338Z,32.40
2023-03-07T01:09:29.719Z,32.65
2023-03-07T01:11:56.863Z,36.78
2023-03-07T01:14:25.672Z,34.65
2023-03-07T01:16:53.009Z,35.40
2023-03-07T01:19:21.073Z,36.72
2023-03-07T01:21:48.277Z,38.83
2023-03-07T01:24:16.352Z,35.00
2023-03-07T01:26:43.622Z,35.47
2023-03-07T01:29:12.565Z,35.78
2023-03-07T01:31:39.788Z,33.55
2023-03-07T01:34:07.684Z,30.70
2023-03-07T01:36:37.402Z,30.27
2023-03-07T01:39:14.567Z,32.53
2023-03-07T01:41:49.252Z,36.00
2023-03-07T01:44:26.289Z,33.53
2023-03-07T01:46:59.974Z,34.95
2023-03-07T01:49:46.231Z,36.55
2023-03-07T01:52:29.677Z,32.97
2023-03-07T01:55:08.483Z,32.45
2023-03-07T01:57:39.875Z,34.22
2023-03-07T02:00:13.596Z,34.03
2023-03-07T02:02:47.607Z,31.10
2023-03-07T02:05:35.632Z,31.88
2023-03-07T02:08:04.255Z,30.52
2023-03-07T02:10:36.654Z,35.38
2023-03-07T02:13:04.490Z,32.20
2023-03-07T02:15:35.154Z,30.52
2023-03-07T02:18:05.779Z,31.02
2023-03-07T02:20:56.118Z,29.15
2023-03-07T02:24:10.073Z,31.50
2023-03-07T02:26:49.533Z,30.98
2023-03-07T02:29:17.269Z,32.05
2023-03-07T02:31:47.933Z,28.00
2023-03-07T02:34:31.216Z,29.95
2023-03-07T02:37:20.492Z,29.17
2023-03-07T02:39:49.441Z,28.58
2023-03-07T02:42:28.417Z,24.65
2023-03-07T02:45:09.996Z,28.27
2023-03-07T02:47:39.382Z,27.85
2023-03-07T02:50:07.453Z,28.33
2023-03-07T02:52:38.542Z,30.75
2023-03-07T02:55:07.555Z,30.35
2023-03-07T02:57:37.564Z,31.08
2023-03-07T03:00:08.074Z,36.72
2023-03-07T03:02:35.679Z,36.78
2023-03-07T03:05:03.427Z,36.92
2023-03-07T03:07:30.805Z,32.22
2023-03-07T03:09:57.853Z,38.53
2023-03-07T03:12:25.428Z,35.97
2023-03-07T03:14:52.473Z,36.35
2023-03-07T03:17:19.781Z,34.90
2023-03-07T03:19:47.006Z,33.33
2023-03-07T03:22:14.563Z,32.72
2023-03-07T03:24:45.234Z,32.42
2023-03-07T03:27:15.743Z,30.27
2023-03-07T03:29:44.309Z,33.20
2023-03-07T03:32:12.421Z,35.05
2023-03-07T03:34:42.400Z,30.38
2023-03-07T03:37:09.558Z,28.08
2023-03-07T03:39:37.580Z,27.33
2023-03-07T03:42:06.185Z,28.55
2023-03-07T03:44:33.579Z,28.35
2023-03-07T03:47:02.482Z,24.40
2023-03-07T03:49:29.800Z,23.17
2023-03-07T03:51:57.078Z,22.27
2023-03-07T03:54:24.583Z,22.33
2023-03-07T03:56:54.997Z,25.05
2023-03-07T03:59:22.377Z,22.35
2023-03-07T04:01:50.230Z,19.80
2023-03-07T04:04:19.141Z,18.42
2023-03-07T04:06:46.620Z,18.50
2023-03-07T04:09:15.122Z,17.30
2023-03-07T04:11:46.376Z,18.47
2023-03-07T04:14:13.650Z,16.25
2023-03-07T04:16:40.979Z,18.70
2023-03-07T04:19:12.934Z,15.07
2023-03-07T04:21:41.007Z,14.25
2023-03-07T04:24:09.285Z,14.35
2023-03-07T04:26:36.941Z,14.13
2023-03-07T04:29:04.880Z,14.75
2023-03-07T04:31:36.368Z,13.52
2023-03-07T04:34:04.980Z,13.00
2023-03-07T04:36:32.684Z,12.43
2023-03-07T04:38:59.770Z,13.73
2023-03-07T04:41:28.860Z,11.90
2023-03-07T04:44:06.376Z,11.63
2023-03-07T04:46:33.724Z,9.50
2023-03-07T04:49:01.344Z,12.15
2023-03-07T04:51:28.903Z,12.77
2023-03-07T04:53:55.792Z,10.52
2023-03-07T04:56:23.269Z,12.60
2023-03-07T04:58:50.503Z,10.90
2023-03-07T05:01:19.052Z,11.15
2023-03-07T05:03:47.292Z,13.80
2023-03-07T05:06:16.714Z,10.15
2023-03-07T05:08:48.374Z,12.55
2023-03-07T05:11:16.397Z,11.70
2023-03-07T05:13:43.341Z,11.88
2023-03-07T05:16:10.931Z,10.77
2023-03-07T05:18:38.815Z,10.65
2023-03-07T05:21:06.916Z,11.48
2023-03-07T05:23:33.952Z,12.02
2023-03-07T05:26:01.244Z,12.23
2023-03-07T05:28:28.599Z,13.27
2023-03-07T05:30:55.872Z,11.68
2023-03-07T05:33:23.244Z,12.18
2023-03-07T05:35:50.933Z,11.32
2023-03-07T05:38:18.589Z,12.15
2023-03-07T05:40:46.667Z,10.50
2023-03-07T05:43:14.522Z,10.60
2023-03-07T05:45:41.916Z,12.18
2023-03-07T05:48:08.882Z,12.68
2023-03-07T05:50:38.937Z,12.15
2023-03-07T05:53:06.442Z,13.15
2023-03-07T05:55:34.517Z,13.30
2023-03-07T05:58:03.335Z,12.35
2023-03-07T06:00:30.844Z,12.75
2023-03-07T06:03:04.861Z,12.38
2023-03-07T06:08:00.250Z,14.98
2023-03-07T06:10:27.608Z,12.52
2023-03-07T06:12:55.898Z,13.98
2023-03-07T06:15:24.700Z,16.00
2023-03-07T06:17:57.254Z,14.30
2023-03-07T06:20:25.064Z,13.52
2023-03-07T06:22:54.885Z,14.32
2023-03-07T06:25:22.191Z,14.40
2023-03-07T06:27:49.978Z,20.65
2023-03-07T06:30:17.779Z,13.55
2023-03-07T06:32:45.294Z,14.80
2023-03-07T06:35:12.813Z,14.25
2023-03-07T06:37:39.772Z,13.80
2023-03-07T06:40:09.618Z,14.68
2023-03-07T06:42:37.630Z,15.35
2023-03-07T06:45:06.428Z,15.13
2023-03-07T06:47:34.867Z,13.00
2023-03-07T06:50:03.560Z,13.43
2023-03-07T06:52:32.155Z,14.20
2023-03-07T06:55:01.395Z,13.27
2023-03-07T06:57:29.749Z,13.40
2023-03-07T06:59:57.091Z,15.70
2023-03-07T07:02:24.748Z,17.08
2023-03-07T07:04:52.199Z,17.35
2023-03-07T07:07:19.835Z,17.70
2023-03-07T07:09:47.094Z,14.30
2023-03-07T07:12:15.262Z,15.38
2023-03-07T07:14:42.496Z,19.08
2023-03-07T07:17:09.909Z,19.02
2023-03-07T07:19:37.363Z,15.60
2023-03-07T07:22:04.638Z,16.58
2023-03-07T07:24:31.994Z,15.38
2023-03-07T07:26:58.903Z,18.58
2023-03-07T07:29:26.583Z,18.13
2023-03-07T07:31:54.803Z,18.95
2023-03-07T07:34:22.959Z,15.23
2023-03-07T07:36:50.023Z,20.10
2023-03-07T07:39:17.759Z,28.35
2023-03-07T07:41:47.758Z,35.13
2023-03-07T07:44:16.216Z,39.58
2023-03-07T07:46:52.810Z,67.07
2023-03-07T07:49:20.086Z,95.80
2023-03-07T07:51:47.159Z,104.72
2023-03-07T07:54:14.724Z,87.93
2023-03-07T07:56:42.047Z,64.60
2023-03-07T07:59:09.425Z,51.92
2023-03-07T08:01:36.859Z,47.10
2023-03-07T08:04:04.304Z,39.45
2023-03-07T08:06:31.747Z,32.28
2023-03-07T08:09:00.167Z,27.55
2023-03-07T08:11:28.258Z,25.98
2023-03-07T08:13:55.744Z,25.80
2023-03-07T08:16:24.194Z,25.77
2023-03-07T08:18:55.887Z,21.13
2023-03-07T08:21:25.413Z,21.23
2023-03-07T08:23:54.525Z,21.02
2023-03-07T08:26:21.896Z,22.27
2023-03-07T08:28:49.203Z,19.98
2023-03-07T08:31:23.351Z,18.95
2023-03-07T08:33:52.172Z,20.08
2023-03-07T08:36:20.193Z,18.70
2023-03-07T08:38:52.220Z,19.63
2023-03-07T08:41:22.332Z,21.20
2023-03-07T08:43:50.148Z,15.50
2023-03-07T08:46:17.467Z,19.77
2023-03-07T08:48:45.166Z,17.77
2023-03-07T08:51:15.663Z,15.70
2023-03-07T08:53:44.790Z,17.73
2023-03-07T08:56:17.005Z,17.35
2023-03-07T08:58:44.764Z,16.20
2023-03-07T09:01:12.967Z,15.77
2023-03-07T09:03:40.398Z,17.73
2023-03-07T09:06:08.230Z,15.23
2023-03-07T09:08:35.441Z,13.68
2023-03-07T09:11:05.594Z,13.30
2023-03-07T09:13:36.092Z,14.50
2023-03-07T09:16:08.566Z,12.45
2023-03-07T09:18:36.670Z,12.30
2023-03-07T09:21:05.905Z,12.30
2023-03-07T09:23:33.385Z,15.75
2023-03-07T09:26:02.254Z,12.98
2023-03-07T09:28:29.471Z,11.70
2023-03-07T09:30:56.543Z,12.82
2023-03-07T09:33:24.108Z,12.32
2023-03-07T09:35:51.278Z,12.23
2023-03-07T09:38:18.528Z,12.90
2023-03-07T09:40:47.619Z,11.25
2023-03-07T09:43:26.767Z,13.40
2023-03-07T09:46:47.488Z,16.00
2023-03-07T09:49:24.590Z,15.77
2023-03-07T09:51:57.264Z,15.88
2023-03-07T09:54:45.561Z,14.90
2023-03-07T09:57:31.462Z,13.88
2023-03-07T10:00:33.891Z,13.65
2023-03-07T10:03:35.959Z,13.50
2023-03-07T10:06:42.979Z,9.15
2023-03-07T10:09:22.349Z,12.00
2023-03-07T10:12:18.135Z,13.65
2023-03-07T10:15:18.154Z,11.77
2023-03-07T10:18:10.592Z,15.40
2023-03-07T10:20:55.648Z,13.32
2023-03-07T10:23:37.153Z,12.27
2023-03-07T10:26:31.513Z,13.07
2023-03-07T10:29:10.472Z,12.93
2023-03-07T10:31:44.878Z,14.32
2023-03-07T10:34:27.445Z,13.30
2023-03-07T10:39:55.532Z,11.73
2023-03-07T10:42:32.076Z,11.23
2023-03-07T10:44:59.559Z,13.05
2023-03-07T10:47:28.782Z,10.55
2023-03-07T10:50:24.172Z,11.10
2023-03-07T10:53:04.952Z,10.85
2023-03-07T10:55:44.459Z,12.13
2023-03-07T10:58:28.232Z,13.80
2023-03-07T11:01:19.488Z,9.85
2023-03-07T11:03:56.896Z,13.95
2023-03-07T11:06:40.510Z,12.25
2023-03-07T11:09:16.493Z,12.73
2023-03-07T11:12:12.898Z,13.82
2023-03-07T11:15:18.069Z,12.23
2023-03-07T11:17:48.491Z,13.38
2023-03-07T11:20:30.629Z,11.85
2023-03-07T11:23:16.807Z,12.50
2023-03-07T11:25:44.087Z,11.90
2023-03-07T11:28:28.241Z,13.40
2023-03-07T11:31:28.941Z,11.68
2023-03-07T11:34:08.746Z,11.23
2023-03-07T11:36:39.595Z,12.32
2023-03-07T11:39:34.336Z,11.13
2023-03-07T11:42:15.398Z,12.23
2023-03-07T11:44:58.044Z,12.23
2023-03-07T11:47:47.809Z,11.85
2023-03-07T11:50:27.062Z,10.98
2023-03-07T11:53:26.692Z,18.50
2023-03-07T11:56:37.167Z,33.83
2023-03-07T11:59:49.066Z,27.80
2023-03-07T12:02:46.290Z,23.25
2023-03-07T12:05:51.838Z,17.92
2023-03-07T12:08:55.175Z,15.93
2023-03-07T12:11:55.544Z,14.95
2023-03-07T12:14:42.302Z,15.82
2023-03-07T12:17:26.412Z,14.15
2023-03-07T12:20:19.018Z,13.40
2023-03-07T12:22:58.571Z,13.45
2023-03-07T12:25:38.345Z,14.30
2023-03-07T12:28:24.696Z,12.05
2023-03-07T12:31:20.034Z,12.32
2023-03-07T12:33:50.256Z,13.93
2023-03-07T12:36:48.321Z,12.98
2023-03-07T12:39:18.475Z,13.00
2023-03-07T12:42:09.348Z,13.30
2023-03-07T12:45:07.496Z,14.00
2023-03-07T12:48:07.123Z,13.13
2023-03-07T12:51:09.343Z,11.55
2023-03-07T12:53:59.411Z,12.82
2023-03-07T12:56:55.435Z,12.57
2023-03-07T12:59:23.447Z,12.70
2023-03-07T13:02:10.826Z,11.63
2023-03-07T13:04:43.219Z,15.13
2023-03-07T13:07:32.199Z,13.50
2023-03-07T13:10:06.474Z,11.65
2023-03-07T13:12:37.668Z,12.40
2023-03-07T13:15:59.177Z,12.10
2023-03-07T13:18:30.735Z,13.45
2023-03-07T13:21:35.122Z,13.18
2023-03-07T13:24:40.091Z,12.48
2023-03-07T13:27:41.327Z,14.18
2023-03-07T13:30:08.377Z,12.10
2023-03-07T13:32:50.916Z,12.55
2023-03-07T13:35:39.209Z,9.25
2023-03-07T13:38:41.135Z,10.50
2023-03-07T13:41:11.817Z,12.77
2023-03-07T13:43:45.120Z,11.73
2023-03-07T13:46:52.432Z,11.35
2023-03-07T13:49:41.719Z,12.50
2023-03-07T13:52:22.685Z,11.68
2023-03-07T13:54:52.082Z,12.60
2023-03-07T13:57:25.328Z,12.98
2023-03-07T13:59:54.598Z,10.63
2023-03-07T14:02:23.160Z,11.95
2023-03-07T14:04:55.857Z,12.25
2023-03-07T14:07:35.344Z,12.73
2023-03-07T14:10:22.358Z,12.25
2023-03-07T14:13:05.235Z,11.10
2023-03-07T14:16:04.916Z,10.77
2023-03-07T14:19:04.628Z,12.48
2023-03-07T14:22:00.962Z,11.43
2023-03-07T14:24:46.191Z,11.18
2023-03-07T14:27:16.722Z,14.20
2023-03-07T14:29:53.950Z,12.10
2023-03-07T14:32:25.270Z,13.13
2023-03-07T14:34:55.575Z,12.50
2023-03-07T14:37:32.624Z,12.88
2023-03-07T14:39:59.539Z,12.50
2023-03-07T14:42:56.544Z,13.35
2023-03-07T14:45:38.867Z,11.55
2023-03-07T14:48:42.951Z,12.10
2023-03-07T14:51:20.301Z,15.73
2023-03-07T14:53:48.996Z,11.50
2023-03-07T14:56:32.158Z,13.98
2023-03-07T14:59:03.204Z,14.38
2023-03-07T15:01:37.444Z,13.55
2023-03-07T15:04:28.731Z,12.35
2023-03-07T15:07:04.439Z,12.00
2023-03-07T15:09:34.354Z,12.98
2023-03-07T15:12:12.636Z,11.48
2023-03-07T15:14:59.190Z,11.20
2023-03-07T15:17:32.681Z,13.27
2023-03-07T15:20:16.800Z,10.98
2023-03-07T15:22:43.948Z,10.13
2023-03-07T15:25:24.529Z,12.30
2023-03-07T15:28:18.058Z,10.65
2023-03-07T15:30:53.567Z,12.88
2023-03-07T15:33:22.583Z,10.02
2023-03-07T15:36:11.660Z,11.68
2023-03-07T15:38:44.540Z,12.82
2023-03-07T15:41:58.834Z,11.65
2023-03-07T15:44:27.253Z,11.15
2023-03-07T15:46:58.626Z,13.90
2023-03-07T15:49:50.006Z,18.70
2023-03-07T15:52:36.703Z,27.73
2023-03-07T15:55:18.119Z,20.38
2023-03-07T15:57:54.931Z,18.65
2023-03-07T16:00:35.078Z,14.27
2023-03-07T16:03:32.354Z,13.32
2023-03-07T16:06:02.029Z,14.18
2023-03-07T16:08:29.361Z,13.98
2023-03-07T16:11:03.384Z,12.45
2023-03-07T16:13:43.650Z,14.57
2023-03-07T16:16:13.876Z,12.93
2023-03-07T16:18:43.578Z,12.23
2023-03-07T16:21:15.111Z,13.02
2023-03-07T16:23:43.138Z,12.52
2023-03-07T16:26:22.986Z,14.82
2023-03-07T16:28:52.970Z,14.20
2023-03-07T16:31:21.066Z,15.30
2023-03-07T16:33:48.872Z,14.70
2023-03-07T16:36:16.510Z,14.98
2023-03-07T16:38:45.964Z,15.60
2023-03-07T16:41:19.855Z,15.35
2023-03-07T16:43:55.307Z,15.55
2023-03-07T16:46:24.516Z,17.33
2023-03-07T16:48:51.821Z,16.48
2023-03-07T16:51:23.497Z,15.68
2023-03-07T16:53:51.509Z,18.40
2023-03-07T16:56:35.002Z,16.38
2023-03-07T16:59:04.946Z,17.13
2023-03-07T17:01:32.518Z,16.58
2023-03-07T17:03:59.853Z,18.35
2023-03-07T17:06:38.448Z,19.98
2023-03-07T17:09:10.128Z,16.38
2023-03-07T17:11:46.746Z,20.17
2023-03-07T17:14:17.663Z,17.58
2023-03-07T17:16:49.051Z,23.20
2023-03-07T17:19:29.634Z,32.40
2023-03-07T17:21:58.730Z,47.08
2023-03-07T17:24:29.043Z,60.28
2023-03-07T17:27:03.479Z,61.17
2023-03-07T17:29:38.368Z,67.55
2023-03-07T17:32:07.543Z,67.38
2023-03-07T17:34:37.100Z,65.07
2023-03-07T17:37:05.353Z,64.43
2023-03-07T17:39:34.445Z,63.60
2023-03-07T17:42:05.136Z,60.58
2023-03-07T17:44:33.136Z,55.67
2023-03-07T17:47:01.041Z,48.13
2023-03-07T17:49:38.129Z,45.53
2023-03-07T17:52:07.009Z,43.60
2023-03-07T17:54:34.513Z,38.08
2023-03-07T17:57:02.297Z,31.50
2023-03-07T17:59:32.760Z,29.50
2023-03-07T18:01:59.896Z,25.02
2023-03-07T18:04:30.932Z,22.70
2023-03-07T18:06:59.863Z,22.33
2023-03-07T18:09:27.077Z,20.25
2023-03-07T18:11:54.332Z,23.73
2023-03-07T18:14:21.593Z,23.95
2023-03-07T18:16:49.073Z,19.60
2023-03-07T18:19:25.739Z,20.25
2023-03-07T18:21:55.243Z,20.60
2023-03-07T18:24:26.457Z,22.35
2023-03-07T18:26:55.732Z,22.25
2023-03-07T18:29:23.782Z,21.67
2023-03-07T18:31:51.665Z,19.48
2023-03-07T18:34:20.227Z,22.48
2023-03-07T18:36:51.377Z,23.33
2023-03-07T18:39:21.371Z,20.73
2023-03-07T18:41:49.680Z,20.63
2023-03-07T18:44:18.445Z,20.52
2023-03-07T18:46:45.820Z,22.02
2023-03-07T18:49:13.492Z,22.92
2023-03-07T18:51:42.707Z,20.17
2023-03-07T18:54:10.213Z,20.75
2023-03-07T18:56:37.635Z,18.98
2023-03-07T18:59:04.849Z,18.88
2023-03-07T19:01:35.308Z,19.85
2023-03-07T19:04:05.317Z,19.70
2023-03-07T19:06:35.789Z,17.48
2023-03-07T19:09:03.872Z,19.23
2023-03-07T19:11:32.394Z,18.73
2023-03-07T19:13:59.868Z,18.58
2023-03-07T19:16:28.492Z,23.50
2023-03-07T19:18:56.502Z,19.83
2023-03-07T19:21:27.309Z,20.92
2023-03-07T19:23:57.260Z,20.35
2023-03-07T19:26:25.222Z,22.08
2023-03-07T19:28:54.845Z,19.17
2023-03-07T19:31:29.572Z,20.48
2023-03-07T19:33:58.430Z,21.58
2023-03-07T19:36:31.968Z,18.77
2023-03-07T19:38:59.510Z,20.45
2023-03-07T19:41:29.839Z,19.27
2023-03-07T19:43:59.913Z,18.70
2023-03-07T19:46:27.737Z,21.35
2023-03-07T19:48:55.851Z,19.63
2023-03-07T19:51:26.347Z,20.20
2023-03-07T19:53:57.151Z,18.42
2023-03-07T19:56:28.694Z,17.95
2023-03-07T19:58:58.423Z,19.60
2023-03-07T20:01:27.756Z,18.92
2023-03-07T20:03:56.048Z,16.42
2023-03-07T20:06:32.164Z,18.65
2023-03-07T20:09:01.285Z,14.55
2023-03-07T20:11:33.954Z,18.38
2023-03-07T20:14:05.146Z,15.65
2023-03-07T20:16:34.546Z,16.38
2023-03-07T20:19:08.945Z,16.63
2023-03-07T20:21:36.874Z,14.82
2023-03-07T20:24:04.811Z,15.00
2023-03-07T20:26:36.369Z,17.90
2023-03-07T20:29:07.246Z,16.17
2023-03-07T20:31:36.139Z,16.00
2023-03-07T20:34:03.522Z,15.93
2023-03-07T20:36:34.085Z,15.85
2023-03-07T20:39:09.958Z,16.65
2023-03-07T20:41:37.076Z,16.55
2023-03-07T20:44:07.714Z,14.23
2023-03-07T20:46:37.905Z,14.07
2023-03-07T20:49:05.853Z,13.73
2023-03-07T20:51:36.290Z,15.48
2023-03-07T20:54:08.340Z,14.88
2023-03-07T20:56:37.724Z,13.80
2023-03-07T20:59:06.007Z,16.90
2023-03-07T21:01:35.326Z,19.13
2023-03-07T21:04:07.905Z,15.88
2023-03-07T21:06:37.172Z,13.05
2023-03-07T21:09:08.094Z,15.85
2023-03-07T21:11:38.540Z,14.43
2023-03-07T21:14:05.871Z,13.63
2023-03-07T21:16:33.113Z,16.73
2023-03-07T21:19:06.844Z,12.95
2023-03-07T21:21:35.768Z,13.18
2023-03-07T21:24:04.655Z,13.10
2023-03-07T21:26:41.256Z,14.40
2023-03-07T21:29:10.648Z,15.50
2023-03-07T21:31:38.596Z,13.07
2023-03-07T21:34:11.703Z,15.02
2023-03-07T21:39:09.633Z,12.82
2023-03-07T21:41:37.120Z,12.90
2023-03-07T21:44:05.500Z,13.90
2023-03-07T21:46:32.976Z,13.20
2023-03-07T21:49:01.371Z,8.80
2023-03-07T21:51:28.618Z,13.80
2023-03-07T21:53:55.938Z,13.93
2023-03-07T21:56:23.913Z,14.50
2023-03-07T21:58:52.912Z,15.18
2023-03-07T22:01:29.005Z,14.85
2023-03-07T22:03:59.160Z,13.77
2023-03-07T22:06:27.612Z,16.17
2023-03-07T22:08:55.101Z,12.68
2023-03-07T22:11:22.409Z,14.55
2023-03-07T22:13:49.988Z,14.02
2023-03-07T22:16:20.596Z,14.45
2023-03-07T22:18:56.093Z,12.65
2023-03-07T22:21:27.692Z,12.50
2023-03-07T22:23:57.931Z,11.93
2023-03-07T22:26:26.652Z,12.48
2023-03-07T22:28:54.521Z,11.43
2023-03-07T22:31:21.513Z,13.20
2023-03-07T22:33:48.778Z,15.57
2023-03-07T22:36:16.320Z,13.05
2023-03-07T22:38:44.538Z,12.60
2023-03-07T22:41:15.904Z,15.55
2023-03-07T22:43:44.040Z,11.25
2023-03-07T22:46:11.787Z,15.02
2023-03-07T22:48:39.963Z,12.20
2023-03-07T22:51:20.267Z,10.77
2023-03-07T22:53:48.359Z,14.55
2023-03-07T22:56:24.137Z,12.98
2023-03-07T22:58:51.511Z,15.63
2023-03-07T23:01:22.602Z,13.85
2023-03-07T23:03:52.723Z,12.20
2023-03-07T23:06:32.999Z,14.38
2023-03-07T23:09:03.296Z,11.45
2023-03-07T23:11:32.898Z,12.70
2023-03-07T23:14:00.701Z,12.80
2023-03-07T23:16:32.407Z,12.00
2023-03-07T23:19:00.479Z,13.75
2023-03-07T23:21:31.411Z,13.07
2023-03-07T23:24:00.658Z,11.55
2023-03-07T23:26:35.783Z,11.93
2023-03-07T23:29:09.644Z,12.85
2023-03-07T23:31:40.076Z,12.73
2023-03-07T23:34:21.087Z,15.02
2023-03-07T23:36:48.340Z,13.05
2023-03-07T23:39:17.478Z,13.10
2023-03-07T23:41:44.906Z,13.13
2023-03-07T23:44:13.082Z,11.35
2023-03-07T23:46:40.123Z,12.80
2023-03-07T23:49:07.296Z,11.27
2023-03-07T23:51:34.578Z,12.95
2023-03-07T23:54:02.985Z,14.02
2023-03-07T23:56:29.996Z,13.55
2023-03-07T23:58:57.164Z,13.00
